Time;durP1;ratioP1;P1;durP2;ratioP2;P2;SDS_P1;SDS_P2;PMS_P1;PMS_P2;Temp;Humidity;BMP_temperature;BMP_pressure;BME280_temperature;BME280_humidity;BME280_pressure;Samples;Min_cycle;Max_cycle;Signal;HPM_P1;HPM_P2
2024/01/30 00:00:31;;;;;;;1.70;1.60;;;;;;;0.62;nan;59895.91;5030772;28;20179;-72
2024/01/30 00:02:57;;;;;;;2.50;2.00;;;;;;;0.51;nan;59919.38;5030708;28;20178;-72
2024/01/30 00:05:22;;;;;;;1.43;1.33;;;;;;;0.84;nan;59963.72;5030715;28;20190;-71
2024/01/30 00:07:47;;;;;;;1.60;1.50;;;;;;;0.38;nan;59907.94;5030610;28;20182;-71
2024/01/30 00:10:13;;;;;;;1.13;1.13;;;;;;;0.53;nan;59911.56;5030440;28;20246;-71
2024/01/30 00:12:38;;;;;;;1.47;1.37;;;;;;;0.52;nan;59929.97;5030431;28;20179;-72
2024/01/30 00:15:04;;;;;;;1.53;1.10;;;;;;;0.41;nan;59900.72;5030478;28;20171;-71
2024/01/30 00:17:30;;;;;;;1.40;1.37;;;;;;;0.45;nan;59927.75;5029123;28;20257;-71
2024/01/30 00:19:56;;;;;;;1.00;1.00;;;;;;;0.37;nan;59815.91;5030796;28;20235;-71
2024/01/30 00:22:21;;;;;;;1.60;1.50;;;;;;;0.23;nan;60071.44;5030524;28;20179;-70
2024/01/30 00:24:47;;;;;;;1.40;1.33;;;;;;;0.65;nan;59887.25;5030146;28;20563;-71
2024/01/30 00:27:12;;;;;;;1.60;1.50;;;;;;;0.24;nan;59864.19;5030267;28;20261;-71
2024/01/30 00:29:37;;;;;;;1.47;1.40;;;;;;;0.22;nan;59884.56;5029960;28;20241;-71
2024/01/30 00:32:03;;;;;;;2.50;2.30;;;;;;;0.60;nan;59926.88;5030687;28;20206;-71
2024/01/30 00:34:28;;;;;;;1.53;1.47;;;;;;;0.16;nan;59848.28;5030152;28;20231;-71
2024/01/30 00:36:54;;;;;;;1.00;1.00;;;;;;;0.49;nan;60130.63;5030330;28;20247;-71
2024/01/30 00:39:19;;;;;;;1.07;1.07;;;;;;;0.47;nan;59864.69;5033574;28;20213;-70
2024/01/30 00:41:45;;;;;;;1.30;1.30;;;;;;;0.39;nan;59873.34;5036555;28;20183;-71
2024/01/30 00:44:10;;;;;;;1.03;1.03;;;;;;;0.26;nan;59851.34;5033164;28;20560;-71
2024/01/30 00:46:36;;;;;;;1.40;1.30;;;;;;;0.32;nan;59878.13;5033817;28;20178;-71
2024/01/30 00:49:01;;;;;;;1.70;1.60;;;;;;;0.27;nan;59878.13;5033864;28;20406;-71
2024/01/30 00:51:29;;;;;;;1.20;1.20;;;;;;;0.66;nan;59880.28;5034223;28;20599;-74
2024/01/30 00:53:55;;;;;;;1.50;1.40;;;;;;;0.58;nan;59927.19;5033703;28;20259;-70
2024/01/30 00:56:20;;;;;;;1.57;1.47;;;;;;;0.43;nan;59850.19;5033411;28;20334;-71
2024/01/30 00:58:46;;;;;;;1.13;1.13;;;;;;;0.36;nan;59900.16;5034013;28;20173;-70
2024/01/30 01:01:12;;;;;;;1.47;1.37;;;;;;;0.48;nan;59915.47;5033690;28;20560;-71
2024/01/30 01:03:37;;;;;;;1.33;1.30;;;;;;;0.04;nan;59824.34;5033485;28;20638;-70
2024/01/30 01:06:03;;;;;;;1.20;1.20;;;;;;;0.36;nan;59892.63;5033560;28;20179;-72
2024/01/30 01:08:28;;;;;;;2.23;2.03;;;;;;;0.41;nan;59820.34;5033288;28;20545;-70
2024/01/30 01:10:53;;;;;;;1.13;1.13;;;;;;;0.30;nan;59889.00;5033259;28;20249;-70
2024/01/30 01:13:19;;;;;;;1.10;1.10;;;;;;;0.23;nan;59893.75;5033073;28;20670;-71
2024/01/30 01:15:44;;;;;;;1.83;1.73;;;;;;;0.41;nan;59926.38;5033068;28;20224;-71
2024/01/30 01:18:10;;;;;;;1.60;1.50;;;;;;;0.02;nan;59935.59;5033194;28;20174;-70
2024/01/30 01:20:35;;;;;;;1.17;1.17;;;;;;;-0.20;nan;59810.72;5033247;28;20233;-71
2024/01/30 01:23:00;;;;;;;1.53;1.43;;;;;;;-0.26;nan;59822.16;5032935;28;20669;-71
2024/01/30 01:25:26;;;;;;;1.27;1.27;;;;;;;-0.28;nan;59821.88;5033144;28;20676;-72
2024/01/30 01:27:52;;;;;;;1.87;1.77;;;;;;;-0.46;nan;59997.97;5033033;28;20177;-71
2024/01/30 01:30:29;;;;;;;1.60;1.50;;;;;;;-0.65;nan;59756.19;5033103;28;20248;-70
2024/01/30 01:33:00;;;;;;;1.10;1.10;;;;;;;-0.48;nan;59765.06;5033069;28;20172;-71
2024/01/30 01:35:26;;;;;;;1.50;1.40;;;;;;;-0.99;nan;59688.84;5032717;28;20282;-70
2024/01/30 01:37:54;;;;;;;1.43;1.40;;;;;;;-1.07;nan;59690.53;5032505;28;20238;-70
2024/01/30 01:40:23;;;;;;;2.30;1.70;;;;;;;-0.91;nan;59687.72;5032539;28;20528;-72
2024/01/30 01:42:51;;;;;;;1.77;1.67;;;;;;;-0.87;nan;59692.16;5033157;28;20377;-71
2024/01/30 01:45:17;;;;;;;2.20;2.00;;;;;;;-0.95;nan;59658.22;5032754;28;20184;-71
2024/01/30 01:47:45;;;;;;;1.60;1.50;;;;;;;-1.11;nan;59568.38;5041307;28;20229;-70
2024/01/30 01:50:11;;;;;;;1.70;1.60;;;;;;;-1.16;nan;59624.88;5032231;28;20210;-71
2024/01/30 01:52:40;;;;;;;2.53;1.60;;;;;;;-1.47;nan;59591.00;5031728;28;20190;-71
2024/01/30 01:55:06;;;;;;;1.50;1.43;;;;;;;-1.32;nan;59542.56;5032619;28;20215;-70
2024/01/30 01:57:31;;;;;;;1.10;1.10;;;;;;;-1.19;nan;59456.28;5032733;28;20214;-71
2024/01/30 01:59:58;;;;;;;1.83;1.73;;;;;;;-1.26;nan;59501.66;5032351;28;20171;-70
2024/01/30 02:02:25;;;;;;;1.30;1.30;;;;;;;-1.61;nan;59395.84;5032364;28;20198;-72
2024/01/30 02:04:51;;;;;;;1.47;1.40;;;;;;;-1.73;nan;59417.03;5032655;28;20179;-71
2024/01/30 02:07:17;;;;;;;1.53;1.43;;;;;;;-1.85;nan;59509.91;5031062;28;20639;-71
2024/01/30 02:09:43;;;;;;;1.37;1.30;;;;;;;-1.90;nan;59314.31;5031667;28;20209;-71
2024/01/30 02:12:08;;;;;;;1.87;1.77;;;;;;;-1.89;nan;59202.84;5031900;28;20234;-70
2024/01/30 02:14:44;;;;;;;1.80;1.70;;;;;;;-1.59;nan;59149.78;5031649;28;20259;-70
2024/01/30 02:17:09;;;;;;;1.40;1.30;;;;;;;-1.84;nan;59020.78;5031884;28;20232;-71
2024/01/30 02:19:35;;;;;;;1.60;1.50;;;;;;;-1.89;nan;58889.69;5031612;28;20218;-71
2024/01/30 02:22:00;;;;;;;1.50;1.40;;;;;;;-2.10;nan;58759.69;5031708;28;20194;-70
2024/01/30 02:24:25;;;;;;;1.00;1.00;;;;;;;-2.12;nan;58657.50;5031976;28;20649;-70
2024/01/30 02:26:51;;;;;;;1.73;1.63;;;;;;;-1.97;nan;58506.41;5031821;28;20247;-70
2024/01/30 02:29:16;;;;;;;1.53;1.43;;;;;;;-2.03;nan;58307.38;5031254;28;20194;-70
2024/01/30 02:31:42;;;;;;;1.80;1.70;;;;;;;-2.45;nan;57974.94;5031278;28;20727;-72
2024/01/30 02:34:07;;;;;;;1.10;1.10;;;;;;;-2.10;nan;57911.81;5031208;28;20236;-71
2024/01/30 02:36:32;;;;;;;2.03;1.93;;;;;;;-2.07;nan;57795.63;5031314;28;20282;-71
2024/01/30 02:38:58;;;;;;;1.50;1.40;;;;;;;-2.82;nan;57470.63;5031365;28;20264;-71
2024/01/30 02:41:23;;;;;;;1.37;1.37;;;;;;;-2.56;nan;57161.50;5031526;28;20536;-70
2024/01/30 02:43:49;;;;;;;1.43;1.40;;;;;;;-2.51;nan;56759.34;5030398;28;20212;-70
2024/01/30 02:46:14;;;;;;;1.33;1.33;;;;;;;-2.54;nan;56286.84;5030322;28;20261;-71
2024/01/30 02:48:39;;;;;;;1.13;1.13;;;;;;;-2.91;nan;56038.81;5030025;28;20206;-71
2024/01/30 02:51:05;;;;;;;2.23;2.13;;;;;;;-2.78;nan;55499.16;5030460;28;20530;-70
2024/01/30 02:53:31;;;;;;;1.73;1.63;;;;;;;-3.09;nan;54527.03;5031180;28;20161;-71
2024/01/30 02:55:56;;;;;;;1.50;1.40;;;;;;;-3.00;nan;54453.97;5037303;28;20187;-71
2024/01/30 02:58:22;;;;;;;1.40;1.40;;;;;;;-2.70;nan;54165.47;5031721;28;20630;-71
2024/01/30 03:00:47;;;;;;;1.83;1.73;;;;;;;-2.97;nan;54047.72;5031111;28;20176;-71
2024/01/30 03:03:12;;;;;;;1.27;1.27;;;;;;;-2.79;nan;53802.22;5030860;28;20189;-70
2024/01/30 03:05:38;;;;;;;1.43;1.40;;;;;;;-3.05;nan;53454.41;5030460;28;20177;-70
2024/01/30 03:08:04;;;;;;;1.70;1.60;;;;;;;-2.65;nan;53217.41;5030943;28;20265;-70
2024/01/30 03:10:30;;;;;;;1.20;1.20;;;;;;;-2.94;nan;53283.03;5031192;28;20215;-71
2024/01/30 03:12:55;;;;;;;1.87;1.70;;;;;;;-2.58;nan;52889.78;5031007;28;20178;-71
2024/01/30 03:15:20;;;;;;;1.60;1.50;;;;;;;-2.90;nan;53093.16;5029889;28;20259;-71
2024/01/30 03:17:46;;;;;;;1.57;1.47;;;;;;;-2.86;nan;53737.78;5031020;28;20659;-69
2024/01/30 03:20:11;;;;;;;1.87;1.77;;;;;;;-2.47;nan;53579.69;5030725;28;20256;-70
2024/01/30 03:22:37;;;;;;;1.70;1.60;;;;;;;-2.47;nan;53377.13;5031155;28;20185;-70
2024/01/30 03:25:02;;;;;;;1.80;1.63;;;;;;;-2.37;nan;53467.00;5031100;28;20653;-71
2024/01/30 03:27:28;;;;;;;1.10;1.10;;;;;;;-2.36;nan;53490.47;5030738;28;20660;-71
2024/01/30 03:29:54;;;;;;;1.10;1.10;;;;;;;-2.27;nan;53215.09;5030789;28;20662;-72
2024/01/30 03:32:19;;;;;;;1.47;1.37;;;;;;;-2.49;nan;53400.56;5031033;28;20192;-71
2024/01/30 03:34:44;;;;;;;1.70;1.60;;;;;;;-2.12;nan;53519.63;5030448;28;20699;-70
2024/01/30 03:37:10;;;;;;;1.20;1.20;;;;;;;-2.10;nan;53421.31;5030626;28;20238;-71
2024/01/30 03:39:36;;;;;;;1.33;1.33;;;;;;;-1.93;nan;53640.63;5030715;28;20189;-71
2024/01/30 03:42:02;;;;;;;4.77;1.83;;;;;;;-2.09;nan;54780.88;5030627;28;20181;-70
2024/01/30 03:44:27;;;;;;;1.37;1.37;;;;;;;-2.25;nan;55171.31;5045762;28;20179;-70
2024/01/30 03:46:53;;;;;;;1.57;1.47;;;;;;;-2.10;nan;55111.41;5030554;28;20188;-71
2024/01/30 03:49:18;;;;;;;1.10;1.10;;;;;;;-2.37;nan;54810.00;5030109;28;20237;-71
2024/01/30 03:51:44;;;;;;;1.53;1.47;;;;;;;-2.14;nan;54416.22;5030554;28;20178;-72
2024/01/30 03:54:09;;;;;;;1.27;1.27;;;;;;;-1.92;nan;54131.56;5030159;28;20216;-72
2024/01/30 03:56:35;;;;;;;1.30;1.30;;;;;;;-1.85;nan;53891.44;5030699;28;20197;-70
2024/01/30 03:59:02;;;;;;;1.17;1.17;;;;;;;-2.22;nan;53039.97;5030712;28;20187;-71
2024/01/30 04:01:28;;;;;;;1.60;1.50;;;;;;;-2.23;nan;53022.00;5032284;28;20522;-70
2024/01/30 04:03:53;;;;;;;1.30;1.30;;;;;;;-1.82;nan;53107.91;5033886;28;20190;-71
2024/01/30 04:06:18;;;;;;;1.60;1.50;;;;;;;-1.68;nan;52896.66;5030931;28;20629;-70
2024/01/30 04:08:44;;;;;;;3.80;2.17;;;;;;;-1.99;nan;52573.75;5030353;28;20663;-71
2024/01/30 04:11:09;;;;;;;1.23;1.23;;;;;;;-1.89;nan;50882.22;5030991;28;20181;-71
2024/01/30 04:13:35;;;;;;;1.30;1.30;;;;;;;-2.17;nan;50366.56;5030563;28;20599;-70
2024/01/30 04:16:02;;;;;;;1.60;1.50;;;;;;;-1.80;nan;50489.19;5031029;28;20172;-72
2024/01/30 04:18:28;;;;;;;1.20;1.20;;;;;;;-2.06;nan;50197.50;5034081;28;20176;-70
2024/01/30 04:20:54;;;;;;;1.13;1.13;;;;;;;-1.99;nan;51855.56;5034303;28;20216;-70
2024/01/30 04:23:19;;;;;;;1.10;1.10;;;;;;;-1.77;nan;52332.94;5033308;28;20249;-71
2024/01/30 04:25:44;;;;;;;1.50;1.40;;;;;;;-1.61;nan;52458.59;5043060;28;20180;-70
2024/01/30 04:28:13;;;;;;;2.60;2.40;;;;;;;-2.04;nan;52077.72;5034171;28;20562;-71
2024/01/30 04:30:39;;;;;;;1.83;1.73;;;;;;;-2.01;nan;52996.53;5033726;28;20747;-72
2024/01/30 04:33:04;;;;;;;2.10;2.00;;;;;;;-1.63;nan;52951.09;5033524;28;20221;-71
2024/01/30 04:35:30;;;;;;;1.90;1.80;;;;;;;-1.81;nan;52919.16;5034528;28;20215;-71
2024/01/30 04:37:55;;;;;;;1.40;1.30;;;;;;;-1.35;nan;53816.19;5033423;28;20190;-71
2024/01/30 04:40:21;;;;;;;1.73;1.63;;;;;;;-1.40;nan;53046.50;5033615;28;20269;-70
2024/01/30 04:42:47;;;;;;;2.17;1.43;;;;;;;-1.72;nan;52542.59;5033529;28;20176;-70
2024/01/30 04:45:12;;;;;;;2.10;1.90;;;;;;;-1.38;nan;51182.59;5033899;28;20625;-71
2024/01/30 04:47:38;;;;;;;1.10;1.10;;;;;;;-1.30;nan;51244.81;5033139;28;20186;-72
2024/01/30 04:50:06;;;;;;;1.43;1.37;;;;;;;-1.23;nan;51004.28;5033780;28;20274;-71
2024/01/30 04:52:31;;;;;;;1.80;1.70;;;;;;;-1.57;nan;50300.59;5033387;28;20261;-71
2024/01/30 04:54:57;;;;;;;1.87;1.77;;;;;;;-1.34;nan;50122.75;5033696;28;20662;-71
2024/01/30 04:57:22;;;;;;;2.13;2.00;;;;;;;-1.26;nan;51571.38;5033714;28;20649;-71
2024/01/30 04:59:48;;;;;;;1.90;1.80;;;;;;;-1.25;nan;52201.91;5033281;28;20174;-72
2024/01/30 05:02:13;;;;;;;1.30;1.27;;;;;;;-1.22;nan;52037.47;5033264;28;20251;-72
2024/01/30 05:04:40;;;;;;;1.80;1.70;;;;;;;-1.47;nan;52812.66;5033679;28;20274;-70
2024/01/30 05:07:06;;;;;;;1.20;1.20;;;;;;;-1.35;nan;53613.75;5033225;28;20180;-72
2024/01/30 05:09:31;;;;;;;1.20;1.20;;;;;;;-1.05;nan;54256.13;5038362;28;20199;-71
2024/01/30 05:11:57;;;;;;;1.20;1.20;;;;;;;-1.08;nan;54121.06;5034806;28;20176;-71
2024/01/30 05:14:22;;;;;;;1.17;1.17;;;;;;;-0.99;nan;54467.34;5033135;28;20554;-71
2024/01/30 05:16:47;;;;;;;1.33;1.30;;;;;;;-1.39;nan;54636.91;5032984;28;20535;-71
2024/01/30 05:19:15;;;;;;;1.10;1.10;;;;;;;-1.26;nan;54492.75;5032939;28;20202;-73
2024/01/30 05:21:41;;;;;;;5.60;1.57;;;;;;;-0.95;nan;54624.03;5033162;28;20172;-70
2024/01/30 05:24:07;;;;;;;1.10;1.10;;;;;;;-0.86;nan;54325.03;5033046;28;20643;-70
2024/01/30 05:26:32;;;;;;;1.30;1.30;;;;;;;-1.02;nan;54454.78;5033091;28;20318;-71
2024/01/30 05:28:58;;;;;;;1.20;1.20;;;;;;;-0.85;nan;54796.91;5032522;28;20558;-69
2024/01/30 05:31:25;;;;;;;1.03;1.03;;;;;;;-0.71;nan;55201.75;5032739;28;20175;-70
2024/01/30 05:33:51;;;;;;;1.30;1.30;;;;;;;-1.07;nan;54984.91;5033072;28;20586;-71
2024/01/30 05:36:16;;;;;;;1.63;1.53;;;;;;;-1.08;nan;55279.03;5033547;28;20172;-70
2024/01/30 05:38:42;;;;;;;1.70;1.60;;;;;;;-0.69;nan;55919.75;5032794;28;20648;-71
2024/01/30 05:41:08;;;;;;;1.10;1.10;;;;;;;-0.68;nan;55985.34;5032133;28;20191;-74
2024/01/30 05:43:33;;;;;;;1.30;1.30;;;;;;;-0.92;nan;56438.75;5032148;28;20194;-72
2024/01/30 05:45:59;;;;;;;1.77;1.67;;;;;;;-0.86;nan;56512.13;5032080;28;20606;-72
2024/01/30 05:48:24;;;;;;;1.30;1.30;;;;;;;-0.54;nan;56328.09;5032166;28;20294;-73
2024/01/30 05:50:50;;;;;;;1.37;1.37;;;;;;;-0.64;nan;55759.72;5032276;28;20209;-72
2024/01/30 05:53:15;;;;;;;3.33;1.90;;;;;;;-1.31;nan;56077.41;5032046;28;20598;-73
2024/01/30 05:55:41;;;;;;;2.47;2.27;;;;;;;-0.71;nan;56218.06;5032338;28;20662;-74
2024/01/30 05:58:06;;;;;;;1.70;1.60;;;;;;;-0.95;nan;56168.31;5039352;28;20270;-76
2024/01/30 06:00:32;;;;;;;3.17;2.13;;;;;;;-0.63;nan;56306.63;5030578;28;20541;-72
2024/01/30 06:02:57;;;;;;;1.30;1.30;;;;;;;-0.59;nan;56355.91;5032010;28;20199;-72
2024/01/30 06:05:22;;;;;;;1.20;1.20;;;;;;;-0.55;nan;56479.81;5030966;28;20180;-72
2024/01/30 06:07:48;;;;;;;2.00;1.80;;;;;;;-0.51;nan;56411.44;5030682;28;20256;-73
2024/01/30 06:10:13;;;;;;;2.30;2.10;;;;;;;-0.56;nan;57075.41;5031756;28;20663;-73
2024/01/30 06:12:39;;;;;;;1.20;1.20;;;;;;;-0.58;nan;57638.88;5031829;28;20187;-72
2024/01/30 06:15:06;;;;;;;1.90;1.70;;;;;;;-0.72;nan;57486.03;5031650;28;20230;-72
2024/01/30 06:17:32;;;;;;;1.87;1.37;;;;;;;-0.26;nan;57354.47;5040302;28;20181;-73
2024/01/30 06:19:57;;;;;;;2.20;1.97;;;;;;;-0.22;nan;57416.94;5031709;28;20190;-72
2024/01/30 06:22:23;;;;;;;2.27;2.07;;;;;;;-0.65;nan;56894.97;5031785;28;20176;-73
2024/01/30 06:24:48;;;;;;;2.40;2.20;;;;;;;-0.28;nan;57052.16;5031593;28;20182;-73
2024/01/30 06:27:15;;;;;;;1.93;1.83;;;;;;;-0.30;nan;56826.97;5031351;28;20657;-73
2024/01/30 06:29:42;;;;;;;1.57;1.47;;;;;;;-0.74;nan;56635.00;5030987;28;20689;-72
2024/01/30 06:32:08;;;;;;;1.20;1.20;;;;;;;-0.63;nan;56632.16;5031573;28;20179;-72
2024/01/30 06:34:33;;;;;;;1.20;1.20;;;;;;;-0.75;nan;56608.91;5031407;28;20223;-73
2024/01/30 06:36:58;;;;;;;2.97;1.77;;;;;;;-0.31;nan;56427.53;5031419;28;20179;-73
2024/01/30 06:39:25;;;;;;;3.13;1.60;;;;;;;-0.25;nan;56398.78;5030745;28;20694;-71
2024/01/30 06:41:50;;;;;;;2.13;2.00;;;;;;;-0.23;nan;56317.69;5031577;28;20221;-71
2024/01/30 06:44:15;;;;;;;1.30;1.20;;;;;;;-0.53;nan;56068.72;5029560;28;20706;-71
2024/01/30 06:46:42;;;;;;;2.37;2.17;;;;;;;-0.21;nan;56410.00;5030914;28;20178;-73
2024/01/30 06:49:07;;;;;;;1.70;1.60;;;;;;;-0.34;nan;57506.84;5031446;28;20197;-73
2024/01/30 06:51:33;;;;;;;1.97;1.83;;;;;;;-0.18;nan;57428.22;5031118;28;20191;-72
2024/01/30 06:53:58;;;;;;;3.10;2.80;;;;;;;-0.08;nan;57627.00;5031183;28;20254;-72
2024/01/30 06:56:23;;;;;;;1.43;1.33;;;;;;;-0.42;nan;58112.22;5031055;28;20228;-73
2024/01/30 06:58:50;;;;;;;1.70;1.60;;;;;;;-0.35;nan;58121.75;5030836;28;20192;-73
2024/01/30 07:01:16;;;;;;;1.90;1.80;;;;;;;-0.31;nan;58241.41;5029670;28;20552;-71
2024/01/30 07:03:42;;;;;;;1.30;1.30;;;;;;;-0.06;nan;58266.63;5031127;28;20178;-73
2024/01/30 07:06:08;;;;;;;1.63;1.53;;;;;;;0.28;nan;58373.31;5030686;28;20185;-73
2024/01/30 07:08:33;;;;;;;1.60;1.50;;;;;;;-0.03;nan;58680.66;5030753;28;20199;-73
2024/01/30 07:10:59;;;;;;;1.60;1.50;;;;;;;0.22;nan;58820.97;5030622;28;20213;-73
2024/01/30 07:13:24;;;;;;;1.63;1.53;;;;;;;0.02;nan;58705.66;5029816;28;20720;-71
2024/01/30 07:15:50;;;;;;;1.20;1.20;;;;;;;0.38;nan;58900.69;5030416;28;20182;-74
2024/01/30 07:18:15;;;;;;;1.60;1.50;;;;;;;0.37;nan;58900.13;5039905;28;20236;-74
2024/01/30 07:20:46;;;;;;;1.70;1.60;;;;;;;0.20;nan;58911.03;5030527;28;20202;-73
2024/01/30 07:23:17;;;;;;;6.83;2.70;;;;;;;0.67;nan;59048.06;5033993;28;20226;-70
2024/01/30 07:25:43;;;;;;;1.47;1.37;;;;;;;0.85;nan;59197.94;5033237;28;20173;-75
2024/01/30 07:28:12;;;;;;;1.60;1.50;;;;;;;0.73;nan;59222.94;5039488;28;20190;-73
2024/01/30 07:30:37;;;;;;;1.90;1.60;;;;;;;0.60;nan;59233.19;5030509;28;20319;-74
2024/01/30 07:33:03;;;;;;;5.43;1.93;;;;;;;0.88;nan;59362.59;5030631;28;20649;-72
2024/01/30 07:35:28;;;;;;;1.70;1.60;;;;;;;0.70;nan;59387.91;5029005;28;20317;-71
2024/01/30 07:37:54;;;;;;;2.23;2.03;;;;;;;1.09;nan;59424.94;5028910;28;20277;-71
2024/01/30 07:40:19;;;;;;;1.90;1.80;;;;;;;0.87;nan;59462.00;5030763;28;20622;-73
2024/01/30 07:42:45;;;;;;;2.17;2.07;;;;;;;0.88;nan;59507.78;5030556;28;20179;-71
2024/01/30 07:45:10;;;;;;;1.87;1.77;;;;;;;1.27;nan;59527.81;5030612;28;20511;-76
2024/01/30 07:47:36;;;;;;;1.30;1.30;;;;;;;1.39;nan;59699.00;5027840;28;20190;-72
2024/01/30 07:50:01;;;;;;;2.00;1.90;;;;;;;0.73;nan;59572.13;5038552;28;20217;-72
2024/01/30 07:52:27;;;;;;;2.17;1.93;;;;;;;1.17;nan;59630.41;5034666;28;20266;-73
2024/01/30 07:58:31;;;;;;;1.53;1.43;;;;;;;1.59;nan;59713.66;5016853;28;20183;-73
2024/01/30 08:00:58;;;;;;;1.70;1.60;;;;;;;1.75;nan;59757.16;5028899;28;20222;-72
2024/01/30 08:03:24;;;;;;;1.87;1.20;;;;;;;1.81;nan;59815.53;5040737;28;20184;-71
2024/01/30 08:05:49;;;;;;;1.33;1.30;;;;;;;1.56;nan;59816.53;5033703;28;20654;-72
2024/01/30 08:08:15;;;;;;;1.23;1.23;;;;;;;2.08;nan;59911.06;5042483;28;20220;-72
2024/01/30 08:10:40;;;;;;;1.70;1.60;;;;;;;2.07;nan;59909.94;5033764;28;20631;-72
2024/01/30 08:13:06;;;;;;;1.37;1.37;;;;;;;2.14;nan;59900.13;5035535;28;20222;-71
2024/01/30 08:15:31;;;;;;;1.23;1.23;;;;;;;2.09;nan;59949.94;5039240;28;20704;-72
2024/01/30 08:17:58;;;;;;;1.50;1.40;;;;;;;2.19;nan;59926.38;5032890;28;20226;-71
2024/01/30 08:20:24;;;;;;;2.50;1.97;;;;;;;2.21;nan;59966.41;5036862;28;20233;-72
2024/01/30 08:22:50;;;;;;;1.20;1.20;;;;;;;2.18;nan;59922.75;5033892;28;20202;-69
2024/01/30 08:25:15;;;;;;;1.50;1.40;;;;;;;2.40;nan;59989.00;5032469;28;20258;-71
2024/01/30 08:27:40;;;;;;;1.60;1.50;;;;;;;2.35;nan;59996.00;5031773;28;20179;-72
2024/01/30 08:30:07;;;;;;;2.30;1.70;;;;;;;2.35;nan;59966.34;5035068;28;20263;-72
2024/01/30 08:32:32;;;;;;;1.40;1.33;;;;;;;2.13;nan;59972.56;5035994;28;20531;-71
2024/01/30 08:34:58;;;;;;;2.20;2.00;;;;;;;2.43;nan;59950.06;5031626;28;20222;-73
2024/01/30 08:37:23;;;;;;;1.13;1.13;;;;;;;2.65;nan;60095.56;5030751;28;20179;-72
2024/01/30 08:39:49;;;;;;;1.80;1.70;;;;;;;2.83;nan;60054.03;5033184;28;20186;-71
2024/01/30 08:42:14;;;;;;;1.27;1.27;;;;;;;2.94;nan;60041.09;5033931;28;20592;-72
2024/01/30 08:44:40;;;;;;;1.70;1.60;;;;;;;2.88;nan;60047.00;5034239;28;20206;-72
2024/01/30 08:47:05;;;;;;;1.73;1.63;;;;;;;2.82;nan;60068.06;5033638;28;20187;-72
2024/01/30 08:49:31;;;;;;;1.30;1.30;;;;;;;2.88;nan;60062.13;5033963;28;20717;-72
2024/01/30 08:51:56;;;;;;;1.60;1.50;;;;;;;2.79;nan;60080.38;5033022;28;20172;-72
2024/01/30 08:54:23;;;;;;;1.57;1.47;;;;;;;3.30;nan;60066.13;5033710;28;20182;-72
2024/01/30 08:56:49;;;;;;;1.73;1.63;;;;;;;3.22;nan;60095.06;5033957;28;20259;-71
2024/01/30 08:59:14;;;;;;;1.50;1.40;;;;;;;3.17;nan;60124.22;5033868;28;20346;-72
2024/01/30 09:01:39;;;;;;;1.00;1.00;;;;;;;3.73;nan;60184.28;5032488;28;20179;-73
2024/01/30 09:04:05;;;;;;;1.50;1.40;;;;;;;3.51;nan;60150.16;5032264;28;20176;-71
2024/01/30 09:06:31;;;;;;;1.30;1.30;;;;;;;3.24;nan;60112.41;5033308;28;20595;-71
2024/01/30 09:08:57;;;;;;;1.83;1.73;;;;;;;3.55;nan;60101.06;5033494;28;20205;-73
2024/01/30 09:11:23;;;;;;;1.10;1.10;;;;;;;3.52;nan;60113.41;5033429;28;20180;-72
2024/01/30 09:13:48;;;;;;;1.57;1.47;;;;;;;3.61;nan;60133.00;5032970;28;20252;-73
2024/01/30 09:16:15;;;;;;;1.20;1.20;;;;;;;3.83;nan;60205.56;5033215;28;20183;-72
2024/01/30 09:18:41;;;;;;;1.43;1.37;;;;;;;3.63;nan;60150.38;5032145;28;20648;-72
2024/01/30 09:21:06;;;;;;;1.20;1.20;;;;;;;3.82;nan;60196.31;5032127;28;20284;-71
2024/01/30 09:23:32;;;;;;;1.47;1.40;;;;;;;3.97;nan;60230.78;5033058;28;20179;-72
2024/01/30 09:25:57;;;;;;;1.63;1.53;;;;;;;3.54;nan;60195.84;5033061;28;20179;-72
2024/01/30 09:28:23;;;;;;;1.37;1.30;;;;;;;3.54;nan;60145.38;5033185;28;20187;-72
2024/01/30 09:30:48;;;;;;;1.70;1.60;;;;;;;3.78;nan;60179.22;5032924;28;20264;-72
2024/01/30 09:33:14;;;;;;;1.30;1.27;;;;;;;3.59;nan;60342.25;5033243;28;20195;-72
2024/01/30 09:35:39;;;;;;;1.80;1.70;;;;;;;3.52;nan;60166.41;5038744;28;20281;-72
2024/01/30 09:38:05;;;;;;;3.37;1.67;;;;;;;3.88;nan;60225.75;5032472;28;20190;-72
2024/01/30 09:40:30;;;;;;;1.20;1.17;;;;;;;3.88;nan;60177.78;5032968;28;20218;-71
2024/01/30 09:42:56;;;;;;;1.17;1.17;;;;;;;3.77;nan;60392.72;5032677;28;20251;-73
2024/01/30 09:45:25;;;;;;;1.37;1.27;;;;;;;3.95;nan;60176.03;5032650;28;20596;-72
2024/01/30 09:47:50;;;;;;;1.20;1.20;;;;;;;4.02;nan;60206.06;5033251;28;20563;-73
2024/01/30 09:50:16;;;;;;;2.47;2.03;;;;;;;3.96;nan;60174.06;5032515;28;20750;-71
2024/01/30 09:52:45;;;;;;;1.60;1.50;;;;;;;4.06;nan;60199.84;5032766;28;20181;-73
2024/01/30 09:55:11;;;;;;;1.43;1.37;;;;;;;4.42;nan;60220.44;5031188;28;20647;-74
2024/01/30 09:57:37;;;;;;;1.60;1.50;;;;;;;4.30;nan;60234.28;5032285;28;20175;-74
2024/01/30 10:00:04;;;;;;;1.80;1.70;;;;;;;4.57;nan;60218.41;5027988;28;20654;-73
2024/01/30 10:02:31;;;;;;;1.50;1.40;;;;;;;4.15;nan;60207.94;5025604;28;21318;-71
2024/01/30 10:05:00;;;;;;;1.80;1.70;;;;;;;4.65;nan;60255.16;5028106;28;20211;-72
2024/01/30 10:07:26;;;;;;;2.20;2.00;;;;;;;4.86;nan;60278.66;5059078;28;20206;-72
2024/01/30 10:09:53;;;;;;;1.83;1.50;;;;;;;4.74;nan;60275.91;5028308;28;20203;-73
2024/01/30 10:12:18;;;;;;;2.10;1.90;;;;;;;4.96;nan;60279.72;5027598;28;20175;-72
2024/01/30 10:14:44;;;;;;;1.20;1.20;;;;;;;4.79;nan;60265.75;5024128;28;20581;-71
2024/01/30 10:17:11;;;;;;;1.60;1.50;;;;;;;4.89;nan;60259.25;5025656;28;20704;-72
2024/01/30 10:19:40;;;;;;;2.10;1.90;;;;;;;4.99;nan;60364.06;5041037;28;20237;-72
2024/01/30 10:22:05;;;;;;;1.57;1.47;;;;;;;5.45;nan;60343.56;5032033;28;20206;-71
2024/01/30 10:24:33;;;;;;;1.60;1.50;;;;;;;5.48;nan;60431.06;5030172;28;20659;-74
2024/01/30 10:26:58;;;;;;;1.20;1.20;;;;;;;5.27;nan;60296.13;5031644;28;20183;-75
2024/01/30 10:29:24;;;;;;;2.23;2.13;;;;;;;5.67;nan;60322.63;5029964;28;20217;-72
2024/01/30 10:32:02;;;;;;;3.43;2.30;;;;;;;5.49;nan;60505.63;5040492;28;20256;-74
2024/01/30 10:34:35;;;;;;;1.50;1.40;;;;;;;5.68;74.19;60428.16;5045114;28;20589;-72
2024/01/30 10:37:15;;;;;;;1.50;1.40;;;;;;;6.07;73.99;60423.19;5047128;28;20194;-72
2024/01/30 10:39:42;;;;;;;1.50;1.40;;;;;;;5.94;72.93;60375.09;5044810;28;20189;-72
2024/01/30 10:42:13;;;;;;;1.30;1.23;;;;;;;6.14;71.97;60412.72;5046450;28;20640;-72
2024/01/30 10:45:08;;;;;;;1.77;1.63;;;;;;;6.34;72.03;60437.09;5037680;28;20715;-71
2024/01/30 10:47:38;;;;;;;1.10;1.10;;;;;;;6.05;71.42;60395.03;5035225;28;20191;-72
2024/01/30 10:50:05;;;;;;;1.40;1.30;;;;;;;6.37;70.39;60479.06;5040299;28;20182;-73
2024/01/30 10:52:32;;;;;;;2.07;1.63;;;;;;;6.47;70.50;60429.41;5041121;28;21386;-73
2024/01/30 10:54:58;;;;;;;1.43;1.33;;;;;;;6.10;68.57;60396.09;5041120;28;20174;-72
2024/01/30 10:57:25;;;;;;;1.03;1.03;;;;;;;5.71;69.28;60398.03;5044446;28;20186;-71
2024/01/30 10:59:57;;;;;;;1.13;1.13;;;;;;;5.77;69.48;60366.75;5043323;28;20945;-72
2024/01/30 11:02:24;;;;;;;1.60;1.50;;;;;;;6.02;68.31;60361.81;5042629;28;20183;-72
2024/01/30 11:04:50;;;;;;;1.30;1.30;;;;;;;6.42;67.11;60453.69;5045418;28;20209;-72
2024/01/30 11:07:23;;;;;;;2.30;2.10;;;;;;;6.04;67.24;60366.59;5045636;28;20341;-73
2024/01/30 11:09:53;;;;;;;1.63;1.53;;;;;;;6.39;66.08;60389.44;5045928;28;20190;-72
2024/01/30 11:12:23;;;;;;;1.47;1.37;;;;;;;6.18;65.11;60386.78;5047113;28;20182;-73
2024/01/30 11:14:49;;;;;;;1.30;1.20;;;;;;;6.19;66.18;60370.72;5047162;28;20257;-73
2024/01/30 11:17:14;;;;;;;1.50;1.40;;;;;;;6.40;66.23;60443.81;5047258;28;20248;-71
2024/01/30 11:19:42;;;;;;;1.83;1.73;;;;;;;6.29;66.13;60370.66;5046025;28;20182;-72
2024/01/30 11:22:07;;;;;;;1.17;1.17;;;;;;;6.48;64.79;60432.50;5046805;28;20185;-73
2024/01/30 11:24:42;;;;;;;1.63;1.53;;;;;;;6.94;63.79;60473.34;5046353;28;20219;-71
2024/01/30 11:27:12;;;;;;;1.00;1.00;;;;;;;7.05;62.79;60485.69;5047053;28;20217;-72
2024/01/30 11:29:38;;;;;;;1.40;1.30;;;;;;;7.01;62.86;60456.38;5046415;28;20189;-71
2024/01/30 11:32:05;;;;;;;1.30;1.30;;;;;;;7.17;63.83;60539.78;5046327;28;20182;-73
2024/01/30 11:34:33;;;;;;;1.40;1.30;;;;;;;7.33;62.73;60534.88;5046003;28;20230;-74
2024/01/30 11:37:03;;;;;;;1.20;1.20;;;;;;;7.38;62.29;60502.38;5045964;28;20198;-73
2024/01/30 11:39:29;;;;;;;1.23;1.23;;;;;;;7.72;60.70;60473.88;5047321;28;20183;-72
2024/01/30 11:41:55;;;;;;;1.43;1.33;;;;;;;8.04;58.27;60574.75;5046789;28;20186;-72
2024/01/30 11:44:21;;;;;;;1.20;1.20;;;;;;;7.71;59.64;60757.44;5050145;28;20180;-71
2024/01/30 11:46:48;;;;;;;1.00;1.00;;;;;;;6.89;63.69;60472.84;5032425;28;20206;-72
2024/01/30 11:49:13;;;;;;;1.20;1.20;;;;;;;6.85;61.89;60483.56;5033509;28;20612;-72
2024/01/30 11:51:39;;;;;;;2.00;1.80;;;;;;;6.89;63.17;60475.91;5033677;28;20179;-73